createdAt,value
2023-04-02T00:00:10.899Z,89.11
2023-04-02T00:03:16.011Z,88.84
2023-04-02T00:06:30.552Z,88.33
2023-04-02T00:09:37.568Z,87.88
2023-04-02T00:12:39.853Z,87.99
2023-04-02T00:15:45.872Z,87.29
2023-04-02T00:18:53.158Z,86.90
2023-04-02T00:21:57.294Z,86.42
2023-04-02T00:25:02.680Z,85.98
2023-04-02T00:28:04.996Z,85.75
2023-04-02T00:31:10.627Z,85.42
2023-04-02T00:34:25.810Z,86.08
2023-04-02T00:37:39.117Z,86.58
2023-04-02T00:40:42.559Z,88.38
2023-04-02T00:43:47.153Z,88.44
2023-04-02T00:46:50.965Z,86.93
2023-04-02T00:50:21.504Z,88.03
2023-04-02T00:53:31.556Z,88.89
2023-04-02T00:56:44.172Z,88.08
2023-04-02T01:00:08.621Z,88.64
2023-04-02T01:03:39.017Z,89.19
2023-04-02T01:06:43.976Z,90.01
2023-04-02T01:10:18.289Z,90.61
2023-04-02T01:13:46.060Z,91.36
2023-04-02T01:17:03.946Z,91.11
2023-04-02T01:20:45.185Z,91.14
2023-04-02T01:23:56.475Z,91.59
2023-04-02T01:27:03.988Z,92.00
2023-04-02T01:30:08.010Z,92.09
2023-04-02T01:33:12.101Z,92.35
2023-04-02T01:36:26.255Z,92.45
2023-04-02T01:39:31.591Z,92.50
2023-04-02T01:42:57.938Z,91.97
2023-04-02T01:46:06.631Z,92.53
2023-04-02T01:49:18.914Z,93.07
2023-04-02T01:52:35.331Z,92.53
2023-04-02T01:55:43.091Z,92.92
2023-04-02T01:58:46.221Z,93.85
2023-04-02T02:01:57.260Z,93.98
2023-04-02T02:04:59.720Z,94.24
2023-04-02T02:08:02.731Z,94.81
2023-04-02T02:11:07.945Z,95.03
2023-04-02T02:14:16.753Z,95.20
2023-04-02T02:17:26.640Z,95.13
2023-04-02T02:20:29.276Z,95.34
2023-04-02T02:23:32.523Z,95.08
2023-04-02T02:26:36.642Z,94.81
2023-04-02T02:29:42.846Z,94.14
2023-04-02T02:33:15.331Z,93.38
2023-04-02T02:36:35.115Z,93.02
2023-04-02T02:39:50.066Z,91.76
2023-04-02T02:42:56.891Z,92.33
2023-04-02T02:46:07.863Z,93.30
2023-04-02T02:49:19.430Z,93.78
2023-04-02T02:52:27.020Z,94.18
2023-04-02T02:55:37.918Z,94.57
2023-04-02T02:58:52.785Z,95.25
2023-04-02T03:02:01.056Z,95.44
2023-04-02T03:05:04.976Z,96.66
2023-04-02T03:08:16.268Z,96.80
2023-04-02T03:11:41.573Z,95.98
2023-04-02T03:15:03.416Z,96.73
2023-04-02T03:18:14.446Z,97.60
2023-04-02T03:21:31.456Z,98.05
2023-04-02T03:24:36.779Z,98.59
2023-04-02T03:27:43.840Z,98.90
2023-04-02T03:30:57.276Z,99.03
2023-04-02T03:34:07.810Z,98.82
2023-04-02T03:37:44.537Z,98.34
2023-04-02T03:41:10.047Z,98.34
2023-04-02T03:44:26.760Z,98.09
2023-04-02T03:47:39.197Z,98.30
2023-04-02T03:50:45.355Z,98.24
2023-04-02T03:53:49.483Z,98.21
2023-04-02T03:56:52.619Z,97.95
2023-04-02T04:00:20.373Z,97.30
2023-04-02T04:03:37.032Z,96.64
2023-04-02T04:06:42.854Z,96.33
2023-04-02T04:09:46.981Z,96.51
2023-04-02T04:12:51.260Z,96.50
2023-04-02T04:16:11.777Z,96.57
2023-04-02T04:19:32.711Z,96.67
2023-04-02T04:22:35.279Z,96.67
2023-04-02T04:26:02.071Z,96.73
2023-04-02T04:29:32.042Z,96.28
2023-04-02T04:32:50.240Z,95.96
2023-04-02T04:35:59.519Z,95.98
2023-04-02T04:39:14.719Z,96.04
2023-04-02T04:42:29.038Z,95.98
2023-04-02T04:45:50.722Z,96.15
2023-04-02T04:49:12.437Z,96.08
2023-04-02T04:52:24.874Z,95.85
2023-04-02T04:55:43.741Z,95.42
2023-04-02T04:58:52.659Z,95.66
2023-04-02T05:02:07.037Z,94.56
2023-04-02T05:05:25.018Z,93.57
2023-04-02T05:08:33.853Z,92.32
2023-04-02T05:11:42.783Z,90.93
2023-04-02T05:14:58.066Z,89.22
2023-04-02T05:18:28.325Z,87.84
2023-04-02T05:21:49.607Z,86.61
2023-04-02T05:25:27.674Z,86.22
2023-04-02T05:28:47.169Z,86.12
2023-04-02T05:32:30.646Z,85.46
2023-04-02T05:35:42.687Z,84.87
2023-04-02T05:38:47.693Z,84.84
2023-04-02T05:42:07.492Z,84.02
2023-04-02T05:45:39.028Z,83.86
2023-04-02T05:48:48.179Z,83.48
2023-04-02T05:51:54.969Z,82.13
2023-04-02T05:55:13.473Z,82.36
2023-04-02T05:58:35.512Z,81.42
2023-04-02T06:02:21.963Z,81.06
2023-04-02T06:05:28.655Z,80.93
2023-04-02T06:08:45.787Z,79.96
2023-04-02T06:11:56.434Z,79.96
2023-04-02T06:14:59.052Z,79.71
2023-04-02T06:18:17.422Z,79.72
2023-04-02T06:21:21.182Z,79.76
2023-04-02T06:24:29.821Z,80.05
2023-04-02T06:27:33.864Z,79.36
2023-04-02T06:30:39.520Z,78.90
2023-04-02T06:33:43.385Z,78.12
2023-04-02T06:36:48.732Z,78.04
2023-04-02T06:39:51.684Z,77.93
2023-04-02T06:43:06.108Z,77.42
2023-04-02T06:46:37.637Z,77.29
2023-04-02T06:50:07.177Z,77.22
2023-04-02T06:53:21.601Z,76.98
2023-04-02T06:56:41.130Z,76.53
2023-04-02T06:59:43.848Z,75.99
2023-04-02T07:02:55.141Z,76.09
2023-04-02T07:06:00.101Z,76.23
2023-04-02T07:09:03.340Z,75.31
2023-04-02T07:12:13.452Z,74.95
2023-04-02T07:15:19.496Z,74.92
2023-04-02T07:18:22.211Z,74.14
2023-04-02T07:21:26.583Z,73.63
2023-04-02T07:24:29.082Z,73.31
2023-04-02T07:27:31.442Z,73.23
2023-04-02T07:30:33.877Z,73.20
2023-04-02T07:33:36.123Z,71.97
2023-04-02T07:36:38.446Z,71.20
2023-04-02T07:39:40.843Z,70.67
2023-04-02T07:42:43.115Z,69.75
2023-04-02T07:45:45.388Z,69.05
2023-04-02T07:48:47.955Z,68.57
2023-04-02T07:51:51.640Z,67.82
2023-04-02T07:54:53.886Z,66.93
2023-04-02T07:57:58.289Z,64.90
2023-04-02T08:01:03.748Z,65.77
2023-04-02T08:04:07.951Z,64.82
2023-04-02T08:07:10.497Z,64.95
2023-04-02T08:10:12.995Z,64.36
2023-04-02T08:13:16.845Z,64.52
2023-04-02T08:16:19.166Z,66.40
2023-04-02T08:19:22.202Z,65.20
2023-04-02T08:22:24.391Z,64.47
2023-04-02T08:25:27.716Z,63.91
2023-04-02T08:28:30.177Z,63.29
2023-04-02T08:31:32.446Z,62.51
2023-04-02T08:34:34.685Z,63.41
2023-04-02T08:37:37.527Z,62.15
2023-04-02T08:40:43.562Z,61.86
2023-04-02T08:44:03.885Z,62.66
2023-04-02T08:47:08.110Z,61.27
2023-04-02T08:50:33.215Z,61.12
2023-04-02T08:53:39.373Z,60.60
2023-04-02T08:56:47.260Z,59.06
2023-04-02T08:59:58.101Z,58.83
2023-04-02T09:03:12.333Z,59.94
2023-04-02T09:06:18.133Z,60.72
2023-04-02T09:09:22.367Z,62.05
2023-04-02T09:12:28.454Z,61.21
2023-04-02T09:15:36.064Z,59.22
2023-04-02T09:18:39.371Z,57.90
2023-04-02T09:21:48.661Z,56.59
2023-04-02T09:24:55.566Z,59.01
2023-04-02T09:28:02.090Z,59.94
2023-04-02T09:31:20.924Z,60.77
2023-04-02T09:34:34.932Z,62.36
2023-04-02T09:37:37.463Z,63.01
2023-04-02T09:40:54.276Z,63.55
2023-04-02T09:44:22.124Z,64.10
2023-04-02T09:47:27.167Z,63.48
2023-04-02T09:50:34.342Z,64.76
2023-04-02T09:53:40.571Z,65.47
2023-04-02T09:57:01.145Z,65.49
2023-04-02T10:00:25.227Z,66.01
2023-04-02T10:03:33.257Z,65.57
2023-04-02T10:06:35.766Z,65.47
2023-04-02T10:09:38.624Z,63.75
2023-04-02T10:12:43.839Z,60.82
2023-04-02T10:15:57.247Z,59.91
2023-04-02T10:19:07.343Z,60.42
2023-04-02T10:22:21.663Z,61.62
2023-04-02T10:25:27.511Z,63.10
2023-04-02T10:28:39.454Z,63.18
2023-04-02T10:32:00.613Z,63.26
2023-04-02T10:35:03.669Z,64.03
2023-04-02T10:38:27.027Z,63.11
2023-04-02T10:41:50.009Z,63.45
2023-04-02T10:45:12.638Z,64.20
2023-04-02T10:48:23.009Z,63.77
2023-04-02T10:51:48.797Z,64.80
2023-04-02T10:54:54.562Z,65.65
2023-04-02T10:58:03.131Z,65.13
2023-04-02T11:01:16.997Z,64.90
2023-04-02T11:04:26.074Z,63.05
2023-04-02T11:07:30.983Z,61.42
2023-04-02T11:10:37.216Z,52.16
2023-04-02T11:13:59.464Z,50.10
2023-04-02T11:17:03.412Z,55.83
2023-04-02T11:20:51.849Z,56.53
2023-04-02T11:24:03.686Z,58.09
2023-04-02T11:27:11.721Z,58.50
2023-04-02T11:30:24.539Z,59.41
2023-04-02T11:33:39.939Z,59.07
2023-04-02T11:36:50.234Z,50.27
2023-04-02T11:39:55.240Z,48.32
2023-04-02T11:43:38.306Z,50.62
2023-04-02T11:46:42.459Z,55.22
2023-04-02T11:49:54.897Z,55.60
2023-04-02T11:53:12.235Z,51.60
2023-04-02T11:56:32.708Z,50.44
2023-04-02T12:00:13.397Z,50.99
2023-04-02T12:03:45.004Z,53.89
2023-04-02T12:07:17.622Z,57.24
2023-04-02T12:10:51.399Z,59.61
2023-04-02T12:13:54.269Z,60.94
2023-04-02T12:16:57.170Z,62.71
2023-04-02T12:20:20.391Z,62.02
2023-04-02T12:23:34.819Z,58.14
2023-04-02T12:26:38.017Z,56.31
2023-04-02T12:29:41.489Z,55.59
2023-04-02T12:32:44.105Z,55.32
2023-04-02T12:35:54.861Z,54.22
2023-04-02T12:38:58.603Z,52.62
2023-04-02T12:42:01.485Z,54.33
2023-04-02T12:45:05.695Z,55.85
2023-04-02T12:48:12.027Z,58.12
2023-04-02T12:51:14.372Z,57.96
2023-04-02T12:54:18.453Z,58.22
2023-04-02T12:57:33.341Z,58.45
2023-04-02T13:00:36.476Z,57.36
2023-04-02T13:03:38.948Z,51.49
2023-04-02T13:06:47.325Z,52.33
2023-04-02T13:09:52.589Z,54.01
2023-04-02T13:13:04.263Z,54.09
2023-04-02T13:16:15.560Z,55.23
2023-04-02T13:19:17.804Z,57.28
2023-04-02T13:22:32.292Z,58.01
2023-04-02T13:25:43.946Z,59.59
2023-04-02T13:28:58.974Z,60.17
2023-04-02T13:32:11.452Z,61.02
2023-04-02T13:35:13.687Z,61.01
2023-04-02T13:38:15.966Z,61.57
2023-04-02T13:41:27.518Z,61.38
2023-04-02T13:44:31.703Z,56.32
2023-04-02T13:47:34.002Z,52.81
2023-04-02T13:50:36.549Z,50.54
2023-04-02T13:53:39.087Z,48.66
2023-04-02T13:56:41.371Z,47.88
2023-04-02T13:59:43.704Z,46.28
2023-04-02T14:02:52.267Z,48.89
2023-04-02T14:06:03.377Z,48.32
2023-04-02T14:09:14.837Z,48.90
2023-04-02T14:12:39.126Z,49.06
2023-04-02T14:15:56.623Z,51.26
2023-04-02T14:19:13.967Z,53.62
2023-04-02T14:22:31.640Z,55.13
2023-04-02T14:25:54.037Z,56.70
2023-04-02T14:29:07.258Z,58.20
2023-04-02T14:32:20.959Z,59.77
2023-04-02T14:35:48.335Z,60.68
2023-04-02T14:39:17.572Z,60.68
2023-04-02T14:42:27.365Z,61.14
2023-04-02T14:45:47.207Z,62.28
2023-04-02T14:49:22.229Z,63.18
2023-04-02T14:52:28.706Z,64.12
2023-04-02T14:55:36.078Z,63.73
2023-04-02T14:58:42.458Z,62.74
2023-04-02T15:01:49.421Z,62.30
2023-04-02T15:05:01.543Z,62.33
2023-04-02T15:08:18.074Z,62.64
2023-04-02T15:11:27.425Z,62.06
2023-04-02T15:14:38.888Z,62.17
2023-04-02T15:17:41.162Z,62.06
2023-04-02T15:20:52.499Z,60.41
2023-04-02T15:24:13.088Z,57.16
2023-04-02T15:27:38.264Z,56.44
2023-04-02T15:30:43.299Z,57.83
2023-04-02T15:33:59.310Z,59.94
2023-04-02T15:37:08.270Z,62.17
2023-04-02T15:40:47.580Z,63.28
2023-04-02T15:44:13.210Z,63.90
2023-04-02T15:47:37.144Z,64.62
2023-04-02T15:50:49.727Z,65.66
2023-04-02T15:54:07.107Z,65.53
2023-04-02T15:57:34.225Z,63.95
2023-04-02T16:00:52.952Z,64.19
2023-04-02T16:04:21.555Z,63.91
2023-04-02T16:07:51.147Z,64.23
2023-04-02T16:10:53.402Z,64.56
2023-04-02T16:14:15.553Z,65.46
2023-04-02T16:17:34.893Z,65.10
2023-04-02T16:20:46.238Z,65.18
2023-04-02T16:23:49.305Z,65.16
2023-04-02T16:27:22.285Z,65.80
2023-04-02T16:30:46.003Z,66.51
2023-04-02T16:33:54.266Z,66.84
2023-04-02T16:37:14.577Z,67.49
2023-04-02T16:40:36.959Z,68.23
2023-04-02T16:43:54.199Z,68.42
2023-04-02T16:47:17.792Z,68.74
2023-04-02T16:50:47.038Z,69.27
2023-04-02T16:54:02.020Z,70.14
2023-04-02T16:57:10.753Z,70.78
2023-04-02T17:00:22.505Z,70.96
2023-04-02T17:03:43.793Z,71.22
2023-04-02T17:06:58.245Z,71.63
2023-04-02T17:10:44.997Z,71.94
2023-04-02T17:13:53.434Z,72.27
2023-04-02T17:17:03.649Z,72.17
2023-04-02T17:20:17.490Z,72.20
2023-04-02T17:23:20.345Z,71.63
2023-04-02T17:26:27.208Z,71.78
2023-04-02T17:29:40.858Z,72.84
2023-04-02T17:32:43.148Z,73.05
2023-04-02T17:36:00.079Z,74.23
2023-04-02T17:39:09.354Z,74.65
2023-04-02T17:42:45.746Z,75.32
2023-04-02T17:45:54.503Z,75.91
2023-04-02T17:49:08.314Z,75.73
2023-04-02T17:52:23.458Z,75.65
2023-04-02T17:55:47.452Z,75.20
2023-04-02T17:58:58.935Z,75.57
2023-04-02T18:02:19.046Z,75.80
2023-04-02T18:05:27.653Z,75.30
2023-04-02T18:09:07.480Z,75.41
2023-04-02T18:12:50.934Z,75.12
2023-04-02T18:16:04.882Z,75.51
2023-04-02T18:19:19.302Z,75.64
2023-04-02T18:22:34.836Z,75.59
2023-04-02T18:25:52.326Z,75.86
2023-04-02T18:29:27.066Z,76.47
2023-04-02T18:32:32.089Z,76.69
2023-04-02T18:35:41.416Z,76.67
2023-04-02T18:39:00.023Z,76.95
2023-04-02T18:42:33.921Z,76.67
2023-04-02T18:46:05.267Z,77.00
2023-04-02T18:49:19.876Z,76.71
2023-04-02T18:52:24.847Z,76.79
2023-04-02T18:55:29.180Z,77.42
2023-04-02T18:58:58.637Z,77.46
2023-04-02T19:02:27.100Z,76.71
2023-04-02T19:05:51.438Z,77.04
2023-04-02T19:09:15.195Z,77.06
2023-04-02T19:12:19.975Z,76.83
2023-04-02T19:15:29.039Z,76.95
2023-04-02T19:18:53.271Z,77.05
2023-04-02T19:22:10.647Z,75.99
2023-04-02T19:26:01.768Z,76.41
2023-04-02T19:29:29.298Z,75.73
2023-04-02T19:33:13.326Z,75.77
2023-04-02T19:36:35.789Z,74.98
2023-04-02T19:40:09.373Z,74.83
2023-04-02T19:43:11.943Z,74.54
2023-04-02T19:46:14.419Z,74.00
2023-04-02T19:49:22.988Z,73.85
2023-04-02T19:52:25.301Z,73.43
2023-04-02T19:55:27.661Z,73.66
2023-04-02T19:58:32.191Z,74.08
2023-04-02T20:01:34.771Z,74.20
2023-04-02T20:04:37.339Z,72.43
2023-04-02T20:07:39.833Z,73.61
2023-04-02T20:10:42.338Z,73.64
2023-04-02T20:13:44.584Z,73.55
2023-04-02T20:16:46.853Z,73.12
2023-04-02T20:19:49.129Z,72.71
2023-04-02T20:22:51.370Z,73.52
2023-04-02T20:25:56.761Z,73.02
2023-04-02T20:29:01.696Z,73.07
2023-04-02T20:32:03.963Z,72.87
2023-04-02T20:35:06.862Z,72.46
2023-04-02T20:38:09.149Z,72.75
2023-04-02T20:41:11.657Z,72.21
2023-04-02T20:44:14.043Z,73.14
2023-04-02T20:47:16.376Z,72.99
2023-04-02T20:50:18.719Z,73.71
2023-04-02T20:53:20.999Z,73.60
2023-04-02T20:56:26.810Z,73.12
2023-04-02T20:59:29.096Z,72.88
2023-04-02T21:02:31.564Z,72.54
2023-04-02T21:05:33.932Z,72.59
2023-04-02T21:08:37.042Z,72.54
2023-04-02T21:11:39.437Z,72.92
2023-04-02T21:14:41.678Z,73.41
2023-04-02T21:17:44.795Z,73.62
2023-04-02T21:20:56.468Z,73.52
2023-04-02T21:24:01.095Z,73.72
2023-04-02T21:27:03.428Z,74.39
2023-04-02T21:30:06.305Z,74.18
2023-04-02T21:33:08.591Z,74.57
2023-04-02T21:36:13.923Z,74.31
2023-04-02T21:39:19.530Z,74.53
2023-04-02T21:42:22.392Z,74.99
2023-04-02T21:45:24.581Z,75.40
2023-04-02T21:48:27.321Z,76.09
2023-04-02T21:51:31.975Z,75.41
2023-04-02T21:54:34.258Z,75.55
2023-04-02T21:57:36.521Z,75.72
2023-04-02T22:00:39.062Z,74.99
2023-04-02T22:03:41.850Z,75.63
2023-04-02T22:06:44.864Z,75.68
2023-04-02T22:09:47.084Z,75.89
2023-04-02T22:12:49.342Z,75.69
2023-04-02T22:15:51.575Z,75.43
2023-04-02T22:18:55.685Z,75.25
2023-04-02T22:21:57.885Z,75.86
2023-04-02T22:25:01.751Z,75.68
2023-04-02T22:28:04.106Z,76.33
2023-04-02T22:31:18.255Z,76.43
2023-04-02T22:34:21.120Z,76.37
2023-04-02T22:37:23.359Z,76.75
2023-04-02T22:40:26.022Z,76.49
2023-04-02T22:43:28.258Z,76.58
2023-04-02T22:46:31.502Z,77.01
2023-04-02T22:49:33.820Z,76.81
2023-04-02T22:52:36.711Z,77.47
2023-04-02T22:55:39.042Z,77.38
2023-04-02T22:58:41.606Z,77.52
2023-04-02T23:01:43.881Z,77.52
2023-04-02T23:04:46.216Z,77.17
2023-04-02T23:07:48.432Z,77.36
2023-04-02T23:10:50.941Z,77.25
2023-04-02T23:13:54.924Z,77.22
2023-04-02T23:16:57.118Z,77.49
2023-04-02T23:19:59.357Z,77.44
2023-04-02T23:23:01.586Z,77.35
2023-04-02T23:26:08.575Z,77.51
2023-04-02T23:29:11.721Z,77.35
2023-04-02T23:32:13.982Z,76.93
2023-04-02T23:35:16.256Z,77.31
2023-04-02T23:38:18.518Z,77.12
2023-04-02T23:41:22.150Z,76.70
2023-04-02T23:44:24.590Z,76.93
2023-04-02T23:47:27.545Z,76.27
2023-04-02T23:50:29.791Z,76.87
2023-04-02T23:53:33.406Z,77.14
2023-04-02T23:56:35.842Z,76.77
2023-04-02T23:59:38.106Z,76.09
